createdAt,value
2023-01-22T00:01:24.847Z,27.10
2023-01-22T00:03:53.861Z,27.20
2023-01-22T00:06:21.100Z,27.63
2023-01-22T00:08:48.402Z,26.87
2023-01-22T00:11:15.574Z,26.77
2023-01-22T00:13:42.306Z,27.50
2023-01-22T00:16:10.600Z,25.00
2023-01-22T00:18:37.277Z,27.73
2023-01-22T00:21:04.179Z,26.47
2023-01-22T00:23:30.947Z,26.77
2023-01-22T00:26:04.362Z,26.73
2023-01-22T00:28:31.378Z,27.50
2023-01-22T00:30:58.999Z,25.30
2023-01-22T00:33:26.148Z,25.83
2023-01-22T00:35:52.787Z,25.93
2023-01-22T00:38:21.483Z,27.17
2023-01-22T00:40:48.190Z,26.63
2023-01-22T00:43:14.883Z,26.13
2023-01-22T00:45:42.080Z,25.47
2023-01-22T00:48:08.713Z,26.43
2023-01-22T00:50:35.365Z,25.53
2023-01-22T00:53:03.957Z,26.50
2023-01-22T00:55:30.997Z,25.40
2023-01-22T00:57:57.679Z,26.77
2023-01-22T01:00:24.353Z,26.73
2023-01-22T01:03:09.809Z,25.83
2023-01-22T01:05:36.642Z,25.93
2023-01-22T01:08:03.313Z,26.50
2023-01-22T01:10:30.257Z,22.97
2023-01-22T01:12:57.859Z,24.80
2023-01-22T01:15:24.579Z,25.67
2023-01-22T01:17:51.167Z,25.47
2023-01-22T01:20:18.400Z,22.30
2023-01-22T01:22:45.156Z,26.87
2023-01-22T01:25:11.933Z,25.73
2023-01-22T01:27:42.044Z,24.73
2023-01-22T01:30:09.047Z,25.10
2023-01-22T01:32:35.869Z,24.23
2023-01-22T01:35:02.645Z,25.80
2023-01-22T01:37:30.653Z,26.90
2023-01-22T01:39:57.861Z,28.57
2023-01-22T01:42:25.372Z,26.03
2023-01-22T01:45:10.433Z,24.47
2023-01-22T01:47:37.099Z,25.47
2023-01-22T01:50:03.939Z,26.17
2023-01-22T01:52:30.616Z,26.33
2023-01-22T01:54:57.835Z,26.33
2023-01-22T01:57:27.351Z,24.80
2023-01-22T01:59:57.653Z,25.93
2023-01-22T02:02:24.862Z,26.33
2023-01-22T02:04:53.784Z,25.03
2023-01-22T02:07:20.762Z,24.13
2023-01-22T02:09:47.449Z,26.50
2023-01-22T02:12:14.226Z,25.53
2023-01-22T02:14:42.989Z,25.97
2023-01-22T02:17:22.702Z,25.47
2023-01-22T02:19:51.258Z,25.07
2023-01-22T02:22:20.052Z,23.67
2023-01-22T02:24:47.009Z,24.93
2023-01-22T02:27:13.827Z,24.97
2023-01-22T02:29:40.687Z,24.03
2023-01-22T02:32:09.556Z,23.63
2023-01-22T02:34:37.457Z,24.10
2023-01-22T02:37:04.371Z,24.57
2023-01-22T02:39:31.754Z,26.17
2023-01-22T02:42:01.569Z,26.07
2023-01-22T02:44:29.339Z,23.80
2023-01-22T02:46:55.975Z,23.53
2023-01-22T02:49:22.644Z,23.90
2023-01-22T02:51:50.185Z,24.87
2023-01-22T02:54:18.364Z,24.17
2023-01-22T02:56:44.978Z,23.77
2023-01-22T02:59:11.645Z,24.83
2023-01-22T03:01:38.304Z,25.10
2023-01-22T03:04:12.194Z,22.70
2023-01-22T03:06:39.948Z,25.17
2023-01-22T03:09:08.070Z,23.70
2023-01-22T03:11:37.942Z,24.53
2023-01-22T03:14:27.000Z,24.60
2023-01-22T03:17:12.373Z,24.43
2023-01-22T03:19:57.765Z,24.07
2023-01-22T03:22:24.491Z,23.33
2023-01-22T03:24:52.728Z,25.43
2023-01-22T03:27:23.757Z,24.17
2023-01-22T03:29:50.948Z,23.37
2023-01-22T03:32:19.595Z,23.70
2023-01-22T03:34:46.326Z,24.50
2023-01-22T03:37:13.911Z,20.00
2023-01-22T03:39:42.610Z,23.80
2023-01-22T03:42:15.087Z,24.13
2023-01-22T03:44:42.056Z,23.30
2023-01-22T03:47:08.900Z,23.50
2023-01-22T03:49:35.538Z,23.30
2023-01-22T03:52:04.673Z,23.73
2023-01-22T03:54:31.429Z,25.00
2023-01-22T03:57:00.640Z,25.33
2023-01-22T03:59:31.055Z,24.43
2023-01-22T04:01:57.856Z,22.60
2023-01-22T04:04:24.613Z,23.97
2023-01-22T04:06:51.412Z,24.03
2023-01-22T04:09:18.498Z,24.23
2023-01-22T04:11:48.541Z,25.37
2023-01-22T04:14:17.695Z,23.63
2023-01-22T04:16:56.081Z,24.53
2023-01-22T04:19:30.044Z,23.30
2023-01-22T04:22:02.210Z,24.57
2023-01-22T04:24:28.899Z,24.53
2023-01-22T04:26:55.572Z,24.50
2023-01-22T04:29:22.271Z,23.57
2023-01-22T04:31:49.894Z,20.63
2023-01-22T04:34:19.718Z,24.27
2023-01-22T04:36:54.347Z,23.00
2023-01-22T04:39:21.720Z,24.37
2023-01-22T04:41:48.442Z,23.93
2023-01-22T04:44:15.136Z,24.23
2023-01-22T04:46:42.270Z,23.77
2023-01-22T04:49:08.967Z,24.27
2023-01-22T04:51:35.888Z,23.53
2023-01-22T04:54:02.443Z,20.77
2023-01-22T04:56:29.048Z,22.90
2023-01-22T04:58:56.087Z,21.20
2023-01-22T05:01:22.810Z,22.43
2023-01-22T05:03:50.185Z,23.57
2023-01-22T05:06:16.862Z,21.77
2023-01-22T05:08:43.454Z,22.30
2023-01-22T05:11:10.775Z,23.07
2023-01-22T05:13:44.191Z,18.90
2023-01-22T05:16:10.870Z,21.30
2023-01-22T05:18:37.950Z,22.60
2023-01-22T05:21:04.967Z,18.47
2023-01-22T05:23:33.431Z,21.73
2023-01-22T05:26:01.224Z,22.40
2023-01-22T05:28:43.249Z,18.43
2023-01-22T05:31:18.442Z,20.77
2023-01-22T05:33:56.363Z,21.40
2023-01-22T05:36:23.318Z,22.80
2023-01-22T05:38:53.331Z,17.07
2023-01-22T05:41:20.794Z,22.00
2023-01-22T05:43:47.902Z,20.23
2023-01-22T05:46:19.586Z,21.63
2023-01-22T05:48:49.140Z,19.03
2023-01-22T05:51:20.384Z,21.67
2023-01-22T05:53:47.151Z,23.40
2023-01-22T05:56:14.955Z,23.70
2023-01-22T05:58:41.640Z,22.23
2023-01-22T06:01:09.331Z,23.63
2023-01-22T06:03:43.615Z,23.83
2023-01-22T06:06:12.877Z,23.00
2023-01-22T06:08:40.120Z,22.83
2023-01-22T06:11:12.321Z,21.93
2023-01-22T06:13:44.176Z,20.70
2023-01-22T06:16:21.650Z,23.63
2023-01-22T06:19:01.112Z,23.10
2023-01-22T06:21:33.410Z,25.47
2023-01-22T06:24:00.597Z,23.27
2023-01-22T06:26:28.029Z,24.33
2023-01-22T06:28:55.354Z,24.43
2023-01-22T06:31:22.759Z,23.33
2023-01-22T06:33:49.462Z,23.70
2023-01-22T06:36:17.038Z,22.10
2023-01-22T06:38:43.730Z,23.70
2023-01-22T06:41:15.061Z,22.67
2023-01-22T06:43:43.797Z,22.27
2023-01-22T06:46:10.728Z,23.70
2023-01-22T06:49:01.623Z,23.50
2023-01-22T06:51:29.525Z,22.37
2023-01-22T06:53:56.943Z,22.47
2023-01-22T06:56:23.606Z,23.17
2023-01-22T06:58:51.066Z,21.40
2023-01-22T07:01:17.736Z,22.20
2023-01-22T07:03:46.237Z,22.03
2023-01-22T07:06:12.899Z,21.53
2023-01-22T07:08:41.088Z,21.93
2023-01-22T07:11:08.082Z,21.47
2023-01-22T07:13:34.819Z,21.27
2023-01-22T07:16:01.960Z,23.17
2023-01-22T07:18:29.020Z,21.17
2023-01-22T07:20:56.608Z,20.30
2023-01-22T07:23:23.244Z,22.37
2023-01-22T07:25:49.803Z,22.03
2023-01-22T07:28:16.981Z,22.53
2023-01-22T07:30:43.929Z,23.47
2023-01-22T07:33:11.348Z,22.07
2023-01-22T07:35:38.111Z,20.93
2023-01-22T07:38:04.842Z,24.00
2023-01-22T07:40:31.785Z,21.73
2023-01-22T07:42:58.503Z,21.37
2023-01-22T07:45:25.691Z,23.07
2023-01-22T07:47:56.248Z,21.77
2023-01-22T07:50:23.768Z,23.10
2023-01-22T07:52:50.431Z,22.50
2023-01-22T07:55:17.196Z,23.50
2023-01-22T07:57:43.952Z,21.40
2023-01-22T08:00:11.256Z,21.37
2023-01-22T08:02:42.308Z,20.93
2023-01-22T08:05:10.527Z,21.00
2023-01-22T08:07:37.220Z,20.67
2023-01-22T08:10:04.042Z,21.20
2023-01-22T08:12:31.185Z,19.93
2023-01-22T08:14:57.960Z,21.20
2023-01-22T08:17:24.552Z,20.73
2023-01-22T08:19:51.124Z,19.47
2023-01-22T08:22:17.745Z,20.73
2023-01-22T08:24:44.354Z,20.97
2023-01-22T08:27:11.000Z,19.57
2023-01-22T08:29:37.593Z,19.63
2023-01-22T08:32:04.318Z,19.97
2023-01-22T08:34:31.249Z,19.07
2023-01-22T08:36:57.891Z,19.27
2023-01-22T08:39:24.649Z,20.30
2023-01-22T08:41:57.365Z,20.50
2023-01-22T08:44:24.510Z,18.97
2023-01-22T08:46:51.774Z,19.60
2023-01-22T08:49:18.579Z,19.17
2023-01-22T08:51:45.228Z,18.70
2023-01-22T08:54:11.909Z,19.43
2023-01-22T08:56:38.520Z,18.50
2023-01-22T08:59:06.812Z,20.77
2023-01-22T09:01:33.824Z,19.67
2023-01-22T09:04:00.543Z,19.90
2023-01-22T09:06:27.288Z,18.17
2023-01-22T09:08:54.236Z,17.83
2023-01-22T09:11:20.873Z,18.87
2023-01-22T09:13:47.466Z,19.60
2023-01-22T09:16:14.203Z,20.37
2023-01-22T09:18:41.249Z,18.23
2023-01-22T09:21:08.586Z,19.40
2023-01-22T09:23:35.207Z,18.67
2023-01-22T09:26:02.065Z,19.40
2023-01-22T09:28:28.701Z,18.07
2023-01-22T09:30:55.328Z,19.77
2023-01-22T09:33:21.915Z,20.13
2023-01-22T09:35:48.561Z,18.83
2023-01-22T09:38:15.676Z,18.43
2023-01-22T09:40:50.173Z,18.37
2023-01-22T09:43:32.104Z,19.43
2023-01-22T09:46:01.420Z,18.47
2023-01-22T09:48:34.844Z,17.87
2023-01-22T09:51:01.620Z,18.53
2023-01-22T09:53:29.462Z,18.17
2023-01-22T09:55:57.656Z,17.93
2023-01-22T09:58:25.219Z,17.50
2023-01-22T10:01:01.008Z,18.20
2023-01-22T10:03:39.166Z,19.03
2023-01-22T10:06:12.046Z,18.97
2023-01-22T10:08:43.780Z,18.57
2023-01-22T10:11:10.928Z,18.37
2023-01-22T10:13:38.520Z,19.83
2023-01-22T10:16:06.100Z,18.43
2023-01-22T10:18:50.233Z,21.97
2023-01-22T10:21:31.204Z,19.13
2023-01-22T10:23:58.287Z,29.27
2023-01-22T10:26:29.225Z,46.47
2023-01-22T10:28:57.591Z,23.10
2023-01-22T10:31:24.367Z,26.53
2023-01-22T10:33:58.004Z,25.10
2023-01-22T10:36:24.975Z,25.17
2023-01-22T10:39:01.965Z,23.07
2023-01-22T10:41:29.828Z,27.90
2023-01-22T10:43:56.531Z,22.50
2023-01-22T10:46:26.291Z,18.73
2023-01-22T10:48:59.906Z,20.47
2023-01-22T10:51:32.486Z,18.17
2023-01-22T10:53:59.263Z,21.00
2023-01-22T10:56:28.781Z,21.57
2023-01-22T10:58:57.071Z,19.00
2023-01-22T11:01:28.513Z,22.13
2023-01-22T11:03:57.181Z,20.90
2023-01-22T11:06:32.624Z,21.50
2023-01-22T11:09:02.749Z,19.80
2023-01-22T11:11:32.045Z,21.27
2023-01-22T11:14:04.501Z,19.10
2023-01-22T11:16:33.406Z,19.87
2023-01-22T11:19:18.169Z,18.53
2023-01-22T11:21:52.193Z,19.90
2023-01-22T11:24:21.667Z,19.70
2023-01-22T11:27:08.225Z,19.53
2023-01-22T11:29:40.100Z,20.53
2023-01-22T11:32:25.565Z,22.57
2023-01-22T11:34:57.931Z,21.00
2023-01-22T11:37:33.539Z,29.47
2023-01-22T11:40:12.084Z,23.00
2023-01-22T11:42:57.324Z,21.47
2023-01-22T11:45:31.510Z,20.20
2023-01-22T11:48:08.027Z,21.13
2023-01-22T11:50:39.953Z,23.13
2023-01-22T11:53:15.692Z,22.10
2023-01-22T11:55:52.180Z,20.57
2023-01-22T11:58:25.573Z,22.10
2023-01-22T12:01:10.601Z,19.10
2023-01-22T12:03:47.859Z,19.13
2023-01-22T12:06:42.060Z,21.50
2023-01-22T12:09:21.605Z,17.27
2023-01-22T12:11:51.233Z,19.37
2023-01-22T12:14:28.559Z,22.87
2023-01-22T12:17:04.547Z,21.63
2023-01-22T12:19:40.656Z,18.03
2023-01-22T12:22:11.751Z,16.33
2023-01-22T12:24:43.015Z,17.63
2023-01-22T12:27:19.386Z,20.00
2023-01-22T12:29:59.850Z,19.00
2023-01-22T12:32:28.246Z,19.57
2023-01-22T12:35:13.064Z,19.33
2023-01-22T12:37:45.047Z,17.90
2023-01-22T12:40:11.662Z,20.60
2023-01-22T12:42:45.057Z,22.23
2023-01-22T12:45:17.807Z,20.50
2023-01-22T12:47:51.778Z,21.20
2023-01-22T12:50:19.971Z,17.87
2023-01-22T12:52:57.414Z,20.20
2023-01-22T12:55:30.670Z,20.77
2023-01-22T12:57:57.526Z,20.53
2023-01-22T13:00:26.108Z,16.47
2023-01-22T13:02:52.777Z,19.83
2023-01-22T13:05:38.454Z,19.90
2023-01-22T13:08:17.302Z,19.10
2023-01-22T13:11:02.828Z,20.03
2023-01-22T13:13:31.893Z,19.10
2023-01-22T13:16:04.675Z,18.60
2023-01-22T13:18:34.441Z,20.77
2023-01-22T13:21:05.912Z,22.60
2023-01-22T13:23:34.289Z,23.77
2023-01-22T13:26:00.895Z,20.73
2023-01-22T13:28:27.932Z,23.23
2023-01-22T13:31:02.428Z,22.47
2023-01-22T13:33:29.498Z,19.77
2023-01-22T13:35:57.749Z,18.63
2023-01-22T13:38:30.315Z,19.23
2023-01-22T13:41:03.446Z,17.37
2023-01-22T13:43:30.557Z,19.47
2023-01-22T13:45:57.785Z,17.67
2023-01-22T13:48:26.266Z,18.63
2023-01-22T13:50:52.947Z,16.07
2023-01-22T13:53:23.608Z,19.93
2023-01-22T13:55:50.539Z,25.53
2023-01-22T13:58:47.965Z,20.03
2023-01-22T14:01:32.780Z,19.77
2023-01-22T14:04:01.004Z,21.40
2023-01-22T14:06:28.247Z,25.60
2023-01-22T14:08:56.261Z,21.30
2023-01-22T14:11:23.093Z,21.27
2023-01-22T14:13:50.982Z,22.17
2023-01-22T14:16:18.303Z,23.47
2023-01-22T14:18:45.399Z,19.70
2023-01-22T14:21:12.438Z,18.67
2023-01-22T14:23:39.374Z,18.53
2023-01-22T14:26:07.558Z,20.13
2023-01-22T14:28:35.688Z,18.33
2023-01-22T14:31:02.608Z,17.57
2023-01-22T14:33:30.863Z,20.70
2023-01-22T14:35:58.069Z,18.50
2023-01-22T14:38:25.777Z,21.30
2023-01-22T14:40:53.128Z,18.70
2023-01-22T14:43:20.456Z,20.17
2023-01-22T14:45:50.516Z,22.43
2023-01-22T14:48:18.256Z,20.23
2023-01-22T14:50:45.425Z,22.73
2023-01-22T14:53:13.327Z,16.93
2023-01-22T14:55:39.989Z,17.93
2023-01-22T14:58:06.864Z,20.50
2023-01-22T15:00:36.414Z,23.70
2023-01-22T15:03:03.212Z,22.77
2023-01-22T15:05:33.303Z,27.30
2023-01-22T15:08:01.602Z,20.70
2023-01-22T15:10:28.364Z,22.50
2023-01-22T15:12:55.367Z,22.03
2023-01-22T15:15:26.319Z,19.70
2023-01-22T15:17:53.830Z,16.40
2023-01-22T15:20:21.425Z,21.53
2023-01-22T15:22:49.612Z,21.77
2023-01-22T15:25:16.764Z,17.17
2023-01-22T15:27:44.608Z,22.60
2023-01-22T15:30:11.998Z,17.70
2023-01-22T15:32:38.896Z,18.43
2023-01-22T15:35:05.806Z,21.13
2023-01-22T15:37:32.466Z,19.80
2023-01-22T15:39:59.488Z,27.03
2023-01-22T15:42:26.152Z,20.17
2023-01-22T15:44:53.118Z,16.37
2023-01-22T15:47:19.792Z,27.87
2023-01-22T15:49:46.642Z,38.07
2023-01-22T15:52:13.285Z,19.10
2023-01-22T15:54:39.874Z,23.53
2023-01-22T15:57:07.144Z,20.50
2023-01-22T15:59:33.775Z,22.33
2023-01-22T16:02:00.607Z,20.93
2023-01-22T16:04:27.870Z,22.43
2023-01-22T16:06:54.477Z,21.80
2023-01-22T16:09:21.151Z,23.13
2023-01-22T16:11:47.836Z,19.03
2023-01-22T16:14:15.065Z,20.40
2023-01-22T16:16:42.037Z,21.80
2023-01-22T16:19:09.942Z,19.20
2023-01-22T16:21:36.619Z,19.20
2023-01-22T16:24:03.918Z,21.50
2023-01-22T16:26:32.448Z,22.07
2023-01-22T16:29:00.027Z,19.43
2023-01-22T16:31:28.229Z,25.27
2023-01-22T16:33:56.180Z,23.13
2023-01-22T16:36:23.798Z,20.17
2023-01-22T16:38:50.501Z,20.97
2023-01-22T16:41:26.538Z,24.30
2023-01-22T16:43:58.633Z,22.80
2023-01-22T16:46:27.678Z,24.03
2023-01-22T16:49:01.565Z,19.23
2023-01-22T16:51:29.289Z,20.73
2023-01-22T16:53:56.284Z,22.17
2023-01-22T16:56:22.945Z,22.57
2023-01-22T16:58:49.650Z,19.50
2023-01-22T17:01:16.690Z,21.93
2023-01-22T17:03:43.371Z,21.43
2023-01-22T17:06:24.568Z,25.13
2023-01-22T17:08:52.781Z,23.53
2023-01-22T17:11:19.910Z,21.90
2023-01-22T17:13:46.871Z,21.53
2023-01-22T17:16:14.217Z,25.07
2023-01-22T17:18:40.865Z,23.03
2023-01-22T17:21:08.130Z,19.07
2023-01-22T17:23:34.777Z,20.33
2023-01-22T17:26:05.363Z,21.83
2023-01-22T17:28:32.604Z,19.50
2023-01-22T17:30:59.301Z,24.67
2023-01-22T17:33:26.049Z,21.87
2023-01-22T17:35:57.633Z,24.93
2023-01-22T17:38:24.978Z,26.17
2023-01-22T17:40:53.187Z,22.23
2023-01-22T17:43:19.790Z,23.50
2023-01-22T17:45:46.430Z,26.17
2023-01-22T17:48:13.203Z,22.37
2023-01-22T17:50:39.969Z,27.47
2023-01-22T17:53:06.696Z,28.00
2023-01-22T17:55:33.374Z,25.77
2023-01-22T17:58:00.175Z,25.37
2023-01-22T18:00:26.939Z,21.40
2023-01-22T18:02:53.785Z,22.00
2023-01-22T18:05:21.325Z,24.53
2023-01-22T18:07:49.305Z,23.20
2023-01-22T18:10:16.153Z,23.43
2023-01-22T18:12:44.513Z,25.60
2023-01-22T18:15:12.172Z,20.00
2023-01-22T18:17:38.862Z,26.73
2023-01-22T18:20:06.879Z,22.33
2023-01-22T18:22:33.643Z,24.63
2023-01-22T18:25:00.417Z,25.80
2023-01-22T18:27:27.867Z,25.17
2023-01-22T18:29:54.536Z,26.33
2023-01-22T18:32:21.948Z,23.20
2023-01-22T18:34:48.667Z,23.37
2023-01-22T18:37:15.428Z,25.77
2023-01-22T18:39:42.169Z,26.10
2023-01-22T18:42:08.912Z,25.23
2023-01-22T18:44:35.664Z,23.50
2023-01-22T18:47:02.406Z,24.80
2023-01-22T18:49:29.321Z,23.73
2023-01-22T18:51:59.333Z,22.60
2023-01-22T18:54:26.189Z,29.30
2023-01-22T18:56:53.290Z,24.07
2023-01-22T18:59:20.116Z,24.40
2023-01-22T19:01:51.678Z,23.00
2023-01-22T19:04:21.796Z,22.30
2023-01-22T19:06:52.585Z,21.63
2023-01-22T19:09:19.933Z,24.13
2023-01-22T19:11:47.437Z,25.07
2023-01-22T19:14:15.525Z,20.83
2023-01-22T19:16:45.041Z,22.53
2023-01-22T19:19:13.569Z,19.87
2023-01-22T19:21:47.123Z,25.70
2023-01-22T19:24:15.468Z,24.40
2023-01-22T19:26:42.672Z,26.43
2023-01-22T19:29:11.428Z,23.23
2023-01-22T19:31:42.527Z,23.93
2023-01-22T19:34:10.946Z,21.43
2023-01-22T19:36:38.751Z,26.27
2023-01-22T19:39:07.120Z,27.70
2023-01-22T19:41:33.782Z,24.97
2023-01-22T19:44:01.240Z,23.33
2023-01-22T19:46:28.655Z,22.53
2023-01-22T19:48:55.698Z,25.47
2023-01-22T19:51:23.250Z,24.33
2023-01-22T19:53:50.225Z,23.83
2023-01-22T19:56:23.139Z,23.00
2023-01-22T19:58:50.361Z,25.30
2023-01-22T20:01:17.862Z,24.70
2023-01-22T20:03:44.629Z,25.97
2023-01-22T20:06:12.175Z,24.93
2023-01-22T20:08:41.895Z,24.60
2023-01-22T20:11:09.544Z,23.47
2023-01-22T20:13:36.859Z,24.33
2023-01-22T20:16:04.061Z,26.10
2023-01-22T20:18:30.919Z,24.67
2023-01-22T20:20:58.637Z,28.23
2023-01-22T20:23:26.100Z,28.07
2023-01-22T20:25:53.379Z,23.43
2023-01-22T20:28:20.404Z,27.33
2023-01-22T20:30:57.318Z,22.60
2023-01-22T20:33:24.172Z,28.27
2023-01-22T20:35:54.384Z,24.87
2023-01-22T20:38:21.070Z,24.97
2023-01-22T20:40:47.867Z,28.33
2023-01-22T20:43:17.160Z,24.80
2023-01-22T20:45:44.286Z,24.60
2023-01-22T20:48:11.003Z,27.03
2023-01-22T20:50:42.008Z,26.20
2023-01-22T20:53:08.870Z,24.63
2023-01-22T20:55:35.566Z,27.00
2023-01-22T20:58:02.228Z,24.60
2023-01-22T21:00:28.847Z,27.93
2023-01-22T21:02:55.464Z,28.60
2023-01-22T21:05:22.276Z,29.93
2023-01-22T21:07:48.911Z,27.43
2023-01-22T21:10:15.756Z,29.60
2023-01-22T21:12:42.471Z,23.47
2023-01-22T21:15:09.386Z,25.27
2023-01-22T21:17:36.888Z,28.17
2023-01-22T21:20:04.122Z,27.80
2023-01-22T21:22:30.762Z,28.47
2023-01-22T21:24:57.434Z,29.87
2023-01-22T21:27:24.173Z,26.60
2023-01-22T21:29:51.893Z,27.80
2023-01-22T21:32:19.282Z,29.93
2023-01-22T21:34:46.001Z,29.27
2023-01-22T21:37:12.563Z,24.57
2023-01-22T21:39:45.056Z,24.83
2023-01-22T21:42:30.935Z,28.90
2023-01-22T21:45:16.423Z,31.50
2023-01-22T21:47:43.319Z,25.17
2023-01-22T21:50:10.362Z,28.27
2023-01-22T21:52:37.064Z,32.67
2023-01-22T21:55:03.955Z,24.93
2023-01-22T21:57:30.602Z,24.47
2023-01-22T21:59:57.690Z,25.30
2023-01-22T22:02:24.407Z,25.47
2023-01-22T22:04:51.149Z,28.27
2023-01-22T22:07:18.391Z,26.03
2023-01-22T22:09:45.040Z,30.03
2023-01-22T22:12:11.772Z,28.43
2023-01-22T22:14:38.394Z,28.50
2023-01-22T22:17:05.020Z,29.83
2023-01-22T22:19:32.056Z,23.37
2023-01-22T22:21:59.201Z,28.27
2023-01-22T22:24:25.793Z,27.60
2023-01-22T22:26:52.336Z,24.60
2023-01-22T22:29:19.005Z,28.57
2023-01-22T22:31:45.684Z,29.00
2023-01-22T22:34:12.337Z,26.70
2023-01-22T22:36:39.095Z,23.97
2023-01-22T22:39:09.058Z,28.93
2023-01-22T22:41:36.988Z,26.70
2023-01-22T22:44:04.425Z,32.23
2023-01-22T22:46:35.473Z,29.57
2023-01-22T22:49:02.801Z,29.77
2023-01-22T22:51:37.129Z,25.40
2023-01-22T22:54:05.823Z,24.77
2023-01-22T22:56:32.535Z,25.80
2023-01-22T22:59:01.041Z,29.57
2023-01-22T23:01:28.687Z,30.40
2023-01-22T23:03:55.398Z,26.90
2023-01-22T23:06:24.263Z,28.83
2023-01-22T23:08:55.081Z,23.90
2023-01-22T23:11:23.034Z,21.20
2023-01-22T23:13:50.163Z,25.73
2023-01-22T23:16:19.070Z,28.13
2023-01-22T23:18:46.933Z,26.57
2023-01-22T23:21:18.771Z,23.10
2023-01-22T23:23:45.606Z,27.43
2023-01-22T23:26:13.393Z,29.73
2023-01-22T23:28:40.405Z,27.70
2023-01-22T23:31:09.229Z,24.30
2023-01-22T23:33:36.212Z,23.83
2023-01-22T23:36:04.199Z,26.73
2023-01-22T23:38:31.164Z,24.13
2023-01-22T23:40:58.566Z,24.23
2023-01-22T23:43:25.209Z,23.03
2023-01-22T23:45:52.043Z,27.17
2023-01-22T23:48:19.203Z,23.90
2023-01-22T23:50:46.916Z,24.20
2023-01-22T23:53:13.754Z,27.07
2023-01-22T23:55:40.493Z,27.73
2023-01-22T23:58:07.675Z,22.67
